sensor_id;sensor_type;location;lat;lon;timestamp;pressure;altitude;pressure_sealevel;temperature;humidity
76694;BME280;65625;52.136;5.424;2023-04-07T00:00:31;101523.03;;;7.90;100.00
76694;BME280;65625;52.136;5.424;2023-04-07T00:02:57;101530.31;;;7.88;100.00
76694;BME280;65625;52.136;5.424;2023-04-07T00:05:25;101537.44;;;7.89;100.00
76694;BME280;65625;52.136;5.424;2023-04-07T00:07:51;101546.34;;;7.90;100.00
76694;BME280;65625;52.136;5.424;2023-04-07T00:10:23;101535.75;;;7.87;100.00
76694;BME280;65625;52.136;5.424;2023-04-07T00:12:50;101535.66;;;7.88;100.00
76694;BME280;65625;52.136;5.424;2023-04-07T00:15:17;101535.75;;;7.87;100.00
76694;BME280;65625;52.136;5.424;2023-04-07T00:17:43;101539.31;;;7.87;100.00
76694;BME280;65625;52.136;5.424;2023-04-07T00:20:11;101538.38;;;7.88;100.00
76694;BME280;65625;52.136;5.424;2023-04-07T00:22:37;101542.09;;;7.86;100.00
76694;BME280;65625;52.136;5.424;2023-04-07T00:25:04;101543.03;;;7.85;100.00
76694;BME280;65625;52.136;5.424;2023-04-07T00:27:31;101542.19;;;7.84;100.00
76694;BME280;65625;52.136;5.424;2023-04-07T00:29:57;101545.78;;;7.83;100.00
76694;BME280;65625;52.136;5.424;2023-04-07T00:32:24;101546.69;;;7.84;100.00
76694;BME280;65625;52.136;5.424;2023-04-07T00:34:51;101547.63;;;7.83;100.00
76694;BME280;65625;52.136;5.424;2023-04-07T00:37:17;101544.00;;;7.84;100.00
76694;BME280;65625;52.136;5.424;2023-04-07T00:39:44;101551.19;;;7.83;100.00
76694;BME280;65625;52.136;5.424;2023-04-07T00:42:12;101545.97;;;7.80;100.00
76694;BME280;65625;52.136;5.424;2023-04-07T00:44:39;101537.19;;;7.77;100.00
76694;BME280;65625;52.136;5.424;2023-04-07T00:47:05;101547.94;;;7.77;100.00
76694;BME280;65625;52.136;5.424;2023-04-07T00:49:32;101540.75;;;7.77;100.00
76694;BME280;65625;52.136;5.424;2023-04-07T00:51:59;101535.38;;;7.77;100.00
76694;BME280;65625;52.136;5.424;2023-04-07T00:54:26;101543.44;;;7.77;100.00
76694;BME280;65625;52.136;5.424;2023-04-07T00:56:52;101544.38;;;7.76;100.00
76694;BME280;65625;52.136;5.424;2023-04-07T00:59:20;101547.16;;;7.74;100.00
76694;BME280;65625;52.136;5.424;2023-04-07T01:04:26;101546.31;;;7.74;100.00
76694;BME280;65625;52.136;5.424;2023-04-07T01:07:03;101544.47;;;7.74;100.00
76694;BME280;65625;52.136;5.424;2023-04-07T01:09:40;101542.72;;;7.73;100.00
76694;BME280;65625;52.136;5.424;2023-04-07T01:12:23;101546.22;;;7.76;100.00
76694;BME280;65625;52.136;5.424;2023-04-07T01:14:58;101543.63;;;7.74;100.00
76694;BME280;65625;52.136;5.424;2023-04-07T01:17:36;101547.22;;;7.73;100.00
76694;BME280;65625;52.136;5.424;2023-04-07T01:20:06;101551.69;;;7.74;100.00
76694;BME280;65625;52.136;5.424;2023-04-07T01:22:42;101551.75;;;7.72;100.00
76694;BME280;65625;52.136;5.424;2023-04-07T01:28:09;101541.78;;;7.74;100.00
76694;BME280;65625;52.136;5.424;2023-04-07T01:30:40;101550.00;;;7.71;100.00
76694;BME280;65625;52.136;5.424;2023-04-07T01:33:10;101551.75;;;7.72;100.00
76694;BME280;65625;52.136;5.424;2023-04-07T01:35:38;101550.88;;;7.72;100.00
76694;BME280;65625;52.136;5.424;2023-04-07T01:38:07;101547.41;;;7.70;100.00
76694;BME280;65625;52.136;5.424;2023-04-07T01:40:36;101549.16;;;7.71;100.00
76694;BME280;65625;52.136;5.424;2023-04-07T01:43:04;101551.03;;;7.69;100.00
76694;BME280;65625;52.136;5.424;2023-04-07T01:45:33;101549.16;;;7.71;100.00
76694;BME280;65625;52.136;5.424;2023-04-07T01:48:00;101553.66;;;7.70;100.00
76694;BME280;65625;52.136;5.424;2023-04-07T01:50:28;101555.38;;;7.71;100.00
76694;BME280;65625;52.136;5.424;2023-04-07T01:52:55;101552.69;;;7.71;100.00
76694;BME280;65625;52.136;5.424;2023-04-07T01:55:23;101557.97;;;7.73;100.00
76694;BME280;65625;52.136;5.424;2023-04-07T01:58:08;101552.69;;;7.71;100.00
76694;BME280;65625;52.136;5.424;2023-04-07T02:00:38;101541.09;;;7.71;100.00
76694;BME280;65625;52.136;5.424;2023-04-07T02:03:14;101539.41;;;7.68;100.00
76694;BME280;65625;52.136;5.424;2023-04-07T02:05:48;101545.59;;;7.70;100.00
76694;BME280;65625;52.136;5.424;2023-04-07T02:08:17;101548.28;;;7.70;100.00
76694;BME280;65625;52.136;5.424;2023-04-07T02:10:47;101548.19;;;7.72;100.00
76694;BME280;65625;52.136;5.424;2023-04-07T02:13:17;101544.53;;;7.73;100.00
76694;BME280;65625;52.136;5.424;2023-04-07T02:15:46;101541.84;;;7.73;100.00
76694;BME280;65625;52.136;5.424;2023-04-07T02:18:18;101548.19;;;7.72;100.00
76694;BME280;65625;52.136;5.424;2023-04-07T02:20:46;101549.84;;;7.74;100.00
76694;BME280;65625;52.136;5.424;2023-04-07T02:23:13;101553.56;;;7.72;100.00
76694;BME280;65625;52.136;5.424;2023-04-07T02:25:41;101548.19;;;7.72;100.00
76694;BME280;65625;52.136;5.424;2023-04-07T02:28:08;101548.28;;;7.70;100.00
76694;BME280;65625;52.136;5.424;2023-04-07T02:30:34;101560.75;;;7.71;100.00
76694;BME280;65625;52.136;5.424;2023-04-07T02:33:01;101558.06;;;7.71;100.00
76694;BME280;65625;52.136;5.424;2023-04-07T02:35:28;101557.13;;;7.72;100.00
76694;BME280;65625;52.136;5.424;2023-04-07T02:37:54;101553.56;;;7.72;100.00
76694;BME280;65625;52.136;5.424;2023-04-07T02:40:21;101551.84;;;7.71;100.00
76694;BME280;65625;52.136;5.424;2023-04-07T02:42:47;101553.56;;;7.72;100.00
76694;BME280;65625;52.136;5.424;2023-04-07T02:45:14;101550.09;;;7.70;100.00
76694;BME280;65625;52.136;5.424;2023-04-07T02:47:41;101554.53;;;7.71;100.00
76694;BME280;65625;52.136;5.424;2023-04-07T02:50:08;101552.84;;;7.68;100.00
76694;BME280;65625;52.136;5.424;2023-04-07T02:52:35;101557.25;;;7.69;100.00
76694;BME280;65625;52.136;5.424;2023-04-07T02:55:07;101563.44;;;7.71;100.00
76694;BME280;65625;52.136;5.424;2023-04-07T02:57:34;101560.81;;;7.70;100.00
76694;BME280;65625;52.136;5.424;2023-04-07T03:00:04;101559.94;;;7.69;100.00
76694;BME280;65625;52.136;5.424;2023-04-07T03:02:48;101558.16;;;7.70;100.00
76694;BME280;65625;52.136;5.424;2023-04-07T03:05:16;101565.28;;;7.71;100.00
76694;BME280;65625;52.136;5.424;2023-04-07T03:07:42;101563.53;;;7.70;100.00
76694;BME280;65625;52.136;5.424;2023-04-07T03:10:09;101560.81;;;7.70;100.00
76694;BME280;65625;52.136;5.424;2023-04-07T03:12:36;101572.47;;;7.70;100.00
76694;BME280;65625;52.136;5.424;2023-04-07T03:15:03;101563.53;;;7.70;100.00
76694;BME280;65625;52.136;5.424;2023-04-07T03:17:29;101565.28;;;7.71;100.00
76694;BME280;65625;52.136;5.424;2023-04-07T03:19:56;101560.66;;;7.73;100.00
76694;BME280;65625;52.136;5.424;2023-04-07T03:22:25;101567.97;;;7.71;100.00
76694;BME280;65625;52.136;5.424;2023-04-07T03:24:52;101564.47;;;7.69;100.00
76694;BME280;65625;52.136;5.424;2023-04-07T03:27:21;101565.31;;;7.69;100.00
76694;BME280;65625;52.136;5.424;2023-04-07T03:29:48;101560.81;;;7.70;100.00
76694;BME280;65625;52.136;5.424;2023-04-07T03:32:16;101567.97;;;7.71;100.00
76694;BME280;65625;52.136;5.424;2023-04-07T03:34:43;101569.84;;;7.69;100.00
76694;BME280;65625;52.136;5.424;2023-04-07T03:37:11;101575.22;;;7.69;100.00
76694;BME280;65625;52.136;5.424;2023-04-07T03:39:38;101569.84;;;7.69;100.00
76694;BME280;65625;52.136;5.424;2023-04-07T03:42:20;101576.16;;;7.68;100.00
76694;BME280;65625;52.136;5.424;2023-04-07T03:44:47;101568.97;;;7.68;100.00
76694;BME280;65625;52.136;5.424;2023-04-07T03:47:14;101573.47;;;7.68;100.00
76694;BME280;65625;52.136;5.424;2023-04-07T03:49:40;101573.47;;;7.68;100.00
76694;BME280;65625;52.136;5.424;2023-04-07T03:52:07;101573.47;;;7.68;100.00
76694;BME280;65625;52.136;5.424;2023-04-07T03:54:33;101568.00;;;7.69;100.00
76694;BME280;65625;52.136;5.424;2023-04-07T03:57:01;101566.28;;;7.68;100.00
76694;BME280;65625;52.136;5.424;2023-04-07T03:59:31;101571.66;;;7.68;100.00
76694;BME280;65625;52.136;5.424;2023-04-07T04:02:01;101567.16;;;7.69;100.00
76694;BME280;65625;52.136;5.424;2023-04-07T04:04:29;101575.16;;;7.70;100.00
76694;BME280;65625;52.136;5.424;2023-04-07T04:06:56;101568.91;;;7.70;100.00
76694;BME280;65625;52.136;5.424;2023-04-07T04:09:33;101575.16;;;7.70;100.00
76694;BME280;65625;52.136;5.424;2023-04-07T04:12:00;101575.22;;;7.69;100.00
76694;BME280;65625;52.136;5.424;2023-04-07T04:14:28;101568.09;;;7.68;100.00
76694;BME280;65625;52.136;5.424;2023-04-07T04:16:59;101574.50;;;7.65;100.00
76694;BME280;65625;52.136;5.424;2023-04-07T04:19:33;101574.44;;;7.67;100.00
76694;BME280;65625;52.136;5.424;2023-04-07T04:22:05;101575.38;;;7.66;100.00
76694;BME280;65625;52.136;5.424;2023-04-07T04:24:38;101577.13;;;7.67;100.00
76694;BME280;65625;52.136;5.424;2023-04-07T04:27:07;101579.81;;;7.67;100.00
76694;BME280;65625;52.136;5.424;2023-04-07T04:29:34;101583.38;;;7.67;100.00
76694;BME280;65625;52.136;5.424;2023-04-07T04:32:04;101586.13;;;7.66;100.00
76694;BME280;65625;52.136;5.424;2023-04-07T04:34:30;101586.13;;;7.66;100.00
76694;BME280;65625;52.136;5.424;2023-04-07T04:36:57;101592.34;;;7.66;100.00
76694;BME280;65625;52.136;5.424;2023-04-07T04:39:24;101592.44;;;7.65;100.00
76694;BME280;65625;52.136;5.424;2023-04-07T04:41:51;101594.19;;;7.66;100.00
76694;BME280;65625;52.136;5.424;2023-04-07T04:44:20;101594.19;;;7.66;100.00
76694;BME280;65625;52.136;5.424;2023-04-07T04:46:47;101602.19;;;7.67;100.00
76694;BME280;65625;52.136;5.424;2023-04-07T04:49:14;101610.22;;;7.67;100.00
76694;BME280;65625;52.136;5.424;2023-04-07T04:51:42;101609.28;;;7.68;100.00
76694;BME280;65625;52.136;5.424;2023-04-07T04:54:15;101618.28;;;7.67;100.00
76694;BME280;65625;52.136;5.424;2023-04-07T04:56:42;101607.63;;;7.66;100.00
76694;BME280;65625;52.136;5.424;2023-04-07T04:59:09;101609.34;;;7.67;100.00
76694;BME280;65625;52.136;5.424;2023-04-07T05:01:56;101616.53;;;7.66;100.00
76694;BME280;65625;52.136;5.424;2023-04-07T05:04:23;101612.94;;;7.67;100.00
76694;BME280;65625;52.136;5.424;2023-04-07T05:06:58;101620.19;;;7.65;100.00
76694;BME280;65625;52.136;5.424;2023-04-07T05:09:27;101617.50;;;7.65;100.00
76694;BME280;65625;52.136;5.424;2023-04-07T05:11:54;101617.59;;;7.64;100.00
76694;BME280;65625;52.136;5.424;2023-04-07T05:14:21;101617.66;;;7.62;100.00
76694;BME280;65625;52.136;5.424;2023-04-07T05:16:54;101623.97;;;7.61;100.00
76694;BME280;65625;52.136;5.424;2023-04-07T05:19:25;101626.72;;;7.60;100.00
76694;BME280;65625;52.136;5.424;2023-04-07T05:21:56;101625.81;;;7.61;100.00
76694;BME280;65625;52.136;5.424;2023-04-07T05:24:25;101625.72;;;7.62;100.00
76694;BME280;65625;52.136;5.424;2023-04-07T05:26:55;101625.81;;;7.61;100.00
76694;BME280;65625;52.136;5.424;2023-04-07T05:29:24;101625.81;;;7.61;100.00
76694;BME280;65625;52.136;5.424;2023-04-07T05:31:51;101628.41;;;7.62;100.00
76694;BME280;65625;52.136;5.424;2023-04-07T05:34:20;101624.84;;;7.62;100.00
76694;BME280;65625;52.136;5.424;2023-04-07T05:36:51;101635.50;;;7.63;100.00
76694;BME280;65625;52.136;5.424;2023-04-07T05:39:19;101633.63;;;7.65;100.00
76694;BME280;65625;52.136;5.424;2023-04-07T05:41:48;101632.75;;;7.65;100.00
76694;BME280;65625;52.136;5.424;2023-04-07T05:44:15;101637.94;;;7.68;100.00
76694;BME280;65625;52.136;5.424;2023-04-07T05:46:43;101635.19;;;7.69;100.00
76694;BME280;65625;52.136;5.424;2023-04-07T05:49:11;101640.50;;;7.71;100.00
76694;BME280;65625;52.136;5.424;2023-04-07T05:51:50;101638.66;;;7.71;100.00
76694;BME280;65625;52.136;5.424;2023-04-07T05:54:18;101640.34;;;7.74;100.00
76694;BME280;65625;52.136;5.424;2023-04-07T05:56:44;101645.47;;;7.79;100.00
76694;BME280;65625;52.136;5.424;2023-04-07T05:59:11;101652.50;;;7.81;100.00
76694;BME280;65625;52.136;5.424;2023-04-07T06:01:38;101653.28;;;7.83;100.00
76694;BME280;65625;52.136;5.424;2023-04-07T06:04:05;101646.91;;;7.86;100.00
76694;BME280;65625;52.136;5.424;2023-04-07T06:06:31;101654.72;;;7.90;100.00
76694;BME280;65625;52.136;5.424;2023-04-07T06:08:58;101663.59;;;7.92;100.00
76694;BME280;65625;52.136;5.424;2023-04-07T06:11:25;101657.25;;;7.93;100.00
76694;BME280;65625;52.136;5.424;2023-04-07T06:13:52;101661.63;;;7.96;100.00
76694;BME280;65625;52.136;5.424;2023-04-07T06:16:19;101666.03;;;7.97;100.00
76694;BME280;65625;52.136;5.424;2023-04-07T06:18:46;101665.94;;;7.98;100.00
76694;BME280;65625;52.136;5.424;2023-04-07T06:21:12;101668.47;;;8.01;100.00
76694;BME280;65625;52.136;5.424;2023-04-07T06:23:39;101663.91;;;8.03;100.00
76694;BME280;65625;52.136;5.424;2023-04-07T06:26:09;101680.56;;;8.10;100.00
76694;BME280;65625;52.136;5.424;2023-04-07T06:28:39;101670.25;;;8.19;100.00
76694;BME280;65625;52.136;5.424;2023-04-07T06:31:07;101673.50;;;8.26;100.00
76694;BME280;65625;52.136;5.424;2023-04-07T06:33:35;101673.63;;;8.23;100.00
76694;BME280;65625;52.136;5.424;2023-04-07T06:36:02;101679.41;;;8.15;100.00
76694;BME280;65625;52.136;5.424;2023-04-07T06:38:28;101671.34;;;8.15;100.00
76694;BME280;65625;52.136;5.424;2023-04-07T06:40:54;101673.94;;;8.17;100.00
76694;BME280;65625;52.136;5.424;2023-04-07T06:43:21;101674.81;;;8.17;100.00
76694;BME280;65625;52.136;5.424;2023-04-07T06:45:53;101683.47;;;8.24;100.00
76694;BME280;65625;52.136;5.424;2023-04-07T06:48:20;101688.69;;;8.27;100.00
76694;BME280;65625;52.136;5.424;2023-04-07T06:50:50;101692.53;;;8.38;100.00
76694;BME280;65625;52.136;5.424;2023-04-07T06:53:17;101695.47;;;8.51;100.00
76694;BME280;65625;52.136;5.424;2023-04-07T06:55:44;101693.06;;;8.62;100.00
76694;BME280;65625;52.136;5.424;2023-04-07T06:58:10;101691.88;;;8.67;100.00
76694;BME280;65625;52.136;5.424;2023-04-07T07:00:37;101693.28;;;8.74;100.00
76694;BME280;65625;52.136;5.424;2023-04-07T07:03:03;101695.47;;;8.83;100.00
76694;BME280;65625;52.136;5.424;2023-04-07T07:05:30;101703.28;;;8.88;100.00
76694;BME280;65625;52.136;5.424;2023-04-07T07:07:57;101704.34;;;8.85;100.00
76694;BME280;65625;52.136;5.424;2023-04-07T07:10:23;101700.59;;;8.88;100.00
76694;BME280;65625;52.136;5.424;2023-04-07T07:12:50;101705.97;;;8.88;99.81
76694;BME280;65625;52.136;5.424;2023-04-07T07:15:17;101709.91;;;8.98;99.59
76694;BME280;65625;52.136;5.424;2023-04-07T07:17:43;101707.91;;;9.02;99.78
76694;BME280;65625;52.136;5.424;2023-04-07T07:20:10;101706.47;;;9.12;99.80
76694;BME280;65625;52.136;5.424;2023-04-07T07:22:37;101703.53;;;9.16;99.47
76694;BME280;65625;52.136;5.424;2023-04-07T07:25:04;101710.47;;;9.20;99.43
76694;BME280;65625;52.136;5.424;2023-04-07T07:27:30;101719.31;;;9.07;98.78
76694;BME280;65625;52.136;5.424;2023-04-07T07:29:57;101721.19;;;9.05;98.47
76694;BME280;65625;52.136;5.424;2023-04-07T07:32:23;101722.25;;;9.02;99.18
76694;BME280;65625;52.136;5.424;2023-04-07T07:34:50;101723.91;;;9.05;98.80
76694;BME280;65625;52.136;5.424;2023-04-07T07:37:16;101727.66;;;9.02;98.77
76694;BME280;65625;52.136;5.424;2023-04-07T07:39:43;101734.47;;;8.92;98.85
76694;BME280;65625;52.136;5.424;2023-04-07T07:42:09;101728.09;;;8.94;98.83
76694;BME280;65625;52.136;5.424;2023-04-07T07:44:36;101734.31;;;8.95;98.66
76694;BME280;65625;52.136;5.424;2023-04-07T07:47:02;101728.53;;;9.03;99.07
76694;BME280;65625;52.136;5.424;2023-04-07T07:49:29;101733.47;;;9.10;98.58
76694;BME280;65625;52.136;5.424;2023-04-07T07:51:59;101739.47;;;9.15;99.07
76694;BME280;65625;52.136;5.424;2023-04-07T07:54:26;101736.38;;;9.23;98.85
76694;BME280;65625;52.136;5.424;2023-04-07T07:56:52;101741.41;;;9.29;98.60
76694;BME280;65625;52.136;5.424;2023-04-07T07:59:19;101737.25;;;9.39;98.29
76694;BME280;65625;52.136;5.424;2023-04-07T08:01:46;101742.81;;;9.36;98.04
76694;BME280;65625;52.136;5.424;2023-04-07T08:04:13;101742.47;;;9.42;98.05
76694;BME280;65625;52.136;5.424;2023-04-07T08:06:39;101747.75;;;9.43;97.69
76694;BME280;65625;52.136;5.424;2023-04-07T08:09:07;101754.72;;;9.47;98.03
76694;BME280;65625;52.136;5.424;2023-04-07T08:11:33;101749.34;;;9.47;97.96
76694;BME280;65625;52.136;5.424;2023-04-07T08:14:00;101750.97;;;9.50;97.69
76694;BME280;65625;52.136;5.424;2023-04-07T08:16:26;101760.22;;;9.46;97.45
76694;BME280;65625;52.136;5.424;2023-04-07T08:18:53;101758.63;;;9.42;96.76
76694;BME280;65625;52.136;5.424;2023-04-07T08:21:20;101757.94;;;9.38;97.00
76694;BME280;65625;52.136;5.424;2023-04-07T08:23:46;101764.88;;;9.27;96.54
76694;BME280;65625;52.136;5.424;2023-04-07T08:26:16;101771.03;;;9.29;96.77
76694;BME280;65625;52.136;5.424;2023-04-07T08:28:43;101767.31;;;9.31;96.60
76694;BME280;65625;52.136;5.424;2023-04-07T08:31:10;101769.84;;;9.34;96.52
76694;BME280;65625;52.136;5.424;2023-04-07T08:33:36;101766.72;;;9.42;96.19
76694;BME280;65625;52.136;5.424;2023-04-07T08:36:03;101764.44;;;9.50;95.88
76694;BME280;65625;52.136;5.424;2023-04-07T08:38:30;101766.72;;;9.57;95.57
76694;BME280;65625;52.136;5.424;2023-04-07T08:41:02;101770.91;;;9.78;95.76
76694;BME280;65625;52.136;5.424;2023-04-07T08:43:29;101765.63;;;10.08;95.47
76694;BME280;65625;52.136;5.424;2023-04-07T08:45:56;101767.31;;;10.25;94.64
76694;BME280;65625;52.136;5.424;2023-04-07T08:48:23;101771.13;;;10.50;94.59
76694;BME280;65625;52.136;5.424;2023-04-07T08:50:56;101762.81;;;10.69;92.94
76694;BME280;65625;52.136;5.424;2023-04-07T08:53:26;101776.09;;;10.72;91.37
76694;BME280;65625;52.136;5.424;2023-04-07T08:55:55;101775.91;;;10.61;91.23
76694;BME280;65625;52.136;5.424;2023-04-07T08:58:22;101776.19;;;10.56;91.81
76694;BME280;65625;52.136;5.424;2023-04-07T09:00:49;101781.59;;;10.56;91.19
76694;BME280;65625;52.136;5.424;2023-04-07T09:03:17;101781.75;;;10.53;91.68
76694;BME280;65625;52.136;5.424;2023-04-07T09:05:44;101783.19;;;10.45;92.12
76694;BME280;65625;52.136;5.424;2023-04-07T09:08:11;101793.13;;;10.29;92.02
76694;BME280;65625;52.136;5.424;2023-04-07T09:10:38;101795.69;;;10.16;91.67
76694;BME280;65625;52.136;5.424;2023-04-07T09:13:05;101798.59;;;10.13;91.23
76694;BME280;65625;52.136;5.424;2023-04-07T09:15:31;101801.28;;;10.13;91.30
76694;BME280;65625;52.136;5.424;2023-04-07T09:18:04;101797.50;;;10.31;91.89
76694;BME280;65625;52.136;5.424;2023-04-07T09:23:31;101804.91;;;10.57;90.78
76694;BME280;65625;52.136;5.424;2023-04-07T09:25:59;101804.31;;;10.52;90.55
76694;BME280;65625;52.136;5.424;2023-04-07T09:28:42;101798.31;;;10.47;90.82
76694;BME280;65625;52.136;5.424;2023-04-07T09:31:09;101799.69;;;10.54;90.04
76694;BME280;65625;52.136;5.424;2023-04-07T09:33:35;101795.69;;;10.61;91.24
76694;BME280;65625;52.136;5.424;2023-04-07T09:36:03;101805.03;;;10.40;89.99
76694;BME280;65625;52.136;5.424;2023-04-07T09:38:37;101801.75;;;10.35;90.31
76694;BME280;65625;52.136;5.424;2023-04-07T09:41:09;101805.59;;;10.31;90.02
76694;BME280;65625;52.136;5.424;2023-04-07T09:43:37;101804.22;;;10.24;90.35
76694;BME280;65625;52.136;5.424;2023-04-07T09:46:09;101805.25;;;10.21;91.29
76694;BME280;65625;52.136;5.424;2023-04-07T09:48:36;101804.41;;;10.21;90.50
76694;BME280;65625;52.136;5.424;2023-04-07T09:51:13;101813.63;;;10.17;90.44
76694;BME280;65625;52.136;5.424;2023-04-07T09:53:47;101811.97;;;10.14;90.46
76694;BME280;65625;52.136;5.424;2023-04-07T09:56:19;101817.97;;;10.19;90.27
76694;BME280;65625;52.136;5.424;2023-04-07T09:58:50;101810.91;;;10.17;90.37
76694;BME280;65625;52.136;5.424;2023-04-07T10:01:20;101812.72;;;10.32;91.11
76694;BME280;65625;52.136;5.424;2023-04-07T10:03:47;101815.50;;;10.46;90.76
76694;BME280;65625;52.136;5.424;2023-04-07T10:06:15;101818.19;;;10.46;89.75
76694;BME280;65625;52.136;5.424;2023-04-07T10:08:42;101812.94;;;10.43;89.65
76694;BME280;65625;52.136;5.424;2023-04-07T10:11:09;101809.66;;;10.38;89.92
76694;BME280;65625;52.136;5.424;2023-04-07T10:13:38;101817.31;;;10.46;88.98
76694;BME280;65625;52.136;5.424;2023-04-07T10:16:06;101818.50;;;10.56;90.20
76694;BME280;65625;52.136;5.424;2023-04-07T10:18:35;101821.31;;;10.68;90.77
76694;BME280;65625;52.136;5.424;2023-04-07T10:21:05;101820.72;;;10.63;90.39
76694;BME280;65625;52.136;5.424;2023-04-07T10:23:39;101823.22;;;10.52;90.54
76694;BME280;65625;52.136;5.424;2023-04-07T10:26:10;101834.03;;;10.37;90.56
76694;BME280;65625;52.136;5.424;2023-04-07T10:28:40;101837.56;;;10.23;90.22
76694;BME280;65625;52.136;5.424;2023-04-07T10:31:09;101837.47;;;10.09;89.45
76694;BME280;65625;52.136;5.424;2023-04-07T10:33:52;101842.41;;;10.01;90.30
76694;BME280;65625;52.136;5.424;2023-04-07T10:36:20;101843.44;;;9.98;89.82
76694;BME280;65625;52.136;5.424;2023-04-07T10:41:36;101842.75;;;9.95;90.08
76694;BME280;65625;52.136;5.424;2023-04-07T10:44:05;101847.28;;;9.94;89.73
76694;BME280;65625;52.136;5.424;2023-04-07T10:49:20;101858.16;;;9.93;88.94
76694;BME280;65625;52.136;5.424;2023-04-07T10:54:38;101861.19;;;10.02;89.08
76694;BME280;65625;52.136;5.424;2023-04-07T10:59:38;101857.25;;;10.09;89.09
76694;BME280;65625;52.136;5.424;2023-04-07T11:04:45;101870.75;;;9.92;89.60
76694;BME280;65625;52.136;5.424;2023-04-07T11:07:13;101868.94;;;9.93;89.77
76694;BME280;65625;52.136;5.424;2023-04-07T11:09:40;101869.00;;;9.91;89.38
76694;BME280;65625;52.136;5.424;2023-04-07T11:12:07;101866.13;;;9.79;88.92
76694;BME280;65625;52.136;5.424;2023-04-07T11:14:34;101867.34;;;9.73;89.44
76694;BME280;65625;52.136;5.424;2023-04-07T11:17:02;101864.13;;;9.67;89.19
76694;BME280;65625;52.136;5.424;2023-04-07T11:19:29;101874.59;;;9.73;89.36
76694;BME280;65625;52.136;5.424;2023-04-07T11:22:14;101863.97;;;9.85;89.79
76694;BME280;65625;52.136;5.424;2023-04-07T11:24:54;101878.31;;;10.01;89.48
76694;BME280;65625;52.136;5.424;2023-04-07T11:27:21;101872.28;;;10.13;89.28
76694;BME280;65625;52.136;5.424;2023-04-07T11:29:47;101874.56;;;10.21;88.88
76694;BME280;65625;52.136;5.424;2023-04-07T11:32:14;101882.47;;;10.24;87.94
76694;BME280;65625;52.136;5.424;2023-04-07T11:34:41;101878.28;;;10.34;88.60
76694;BME280;65625;52.136;5.424;2023-04-07T11:37:18;101880.88;;;10.36;88.20
76694;BME280;65625;52.136;5.424;2023-04-07T11:39:56;101884.59;;;10.49;88.44
76694;BME280;65625;52.136;5.424;2023-04-07T11:42:37;101884.00;;;10.59;88.14
76694;BME280;65625;52.136;5.424;2023-04-07T11:45:16;101874.28;;;10.71;88.19
76694;BME280;65625;52.136;5.424;2023-04-07T11:47:43;101869.41;;;10.62;87.77
76694;BME280;65625;52.136;5.424;2023-04-07T11:50:10;101871.44;;;10.58;87.00
76694;BME280;65625;52.136;5.424;2023-04-07T11:52:47;101882.06;;;10.61;87.72
76694;BME280;65625;52.136;5.424;2023-04-07T11:55:20;101883.00;;;10.60;87.64
76694;BME280;65625;52.136;5.424;2023-04-07T11:57:50;101883.00;;;10.60;87.39
76694;BME280;65625;52.136;5.424;2023-04-07T12:00:18;101887.47;;;10.61;87.48
76694;BME280;65625;52.136;5.424;2023-04-07T12:02:45;101886.31;;;10.65;87.25
76694;BME280;65625;52.136;5.424;2023-04-07T12:05:12;101892.28;;;10.56;85.51
76694;BME280;65625;52.136;5.424;2023-04-07T12:07:39;101899.78;;;10.51;85.55
76694;BME280;65625;52.136;5.424;2023-04-07T12:10:20;101906.97;;;10.51;85.55
76694;BME280;65625;52.136;5.424;2023-04-07T12:12:47;101908.03;;;10.48;86.73
76694;BME280;65625;52.136;5.424;2023-04-07T12:15:14;101910.06;;;10.45;85.91
76694;BME280;65625;52.136;5.424;2023-04-07T12:17:46;101912.81;;;10.43;85.67
76694;BME280;65625;52.136;5.424;2023-04-07T12:20:14;101918.66;;;10.51;86.30
76694;BME280;65625;52.136;5.424;2023-04-07T12:22:41;101921.69;;;10.61;87.66
76694;BME280;65625;52.136;5.424;2023-04-07T12:25:07;101913.31;;;10.65;86.80
76694;BME280;65625;52.136;5.424;2023-04-07T12:27:34;101918.53;;;10.68;86.62
76694;BME280;65625;52.136;5.424;2023-04-07T12:30:09;101920.97;;;10.73;86.03
76694;BME280;65625;52.136;5.424;2023-04-07T12:32:35;101917.13;;;10.77;84.73
76694;BME280;65625;52.136;5.424;2023-04-07T12:35:03;101917.72;;;10.82;84.99
76694;BME280;65625;52.136;5.424;2023-04-07T12:37:30;101915.19;;;10.94;86.88
76694;BME280;65625;52.136;5.424;2023-04-07T12:39:58;101917.06;;;11.08;85.79
76694;BME280;65625;52.136;5.424;2023-04-07T12:42:25;101919.38;;;11.14;84.83
76694;BME280;65625;52.136;5.424;2023-04-07T12:44:52;101922.28;;;11.11;83.98
76694;BME280;65625;52.136;5.424;2023-04-07T12:47:18;101920.59;;;10.94;84.17
76694;BME280;65625;52.136;5.424;2023-04-07T12:49:45;101926.50;;;10.85;83.64
76694;BME280;65625;52.136;5.424;2023-04-07T12:52:15;101931.13;;;10.83;85.46
76694;BME280;65625;52.136;5.424;2023-04-07T12:54:43;101929.41;;;10.82;85.44
76694;BME280;65625;52.136;5.424;2023-04-07T12:57:10;101928.63;;;10.80;85.96
76694;BME280;65625;52.136;5.424;2023-04-07T12:59:37;101930.72;;;10.75;84.71
76694;BME280;65625;52.136;5.424;2023-04-07T13:02:03;101938.91;;;10.74;85.16
76694;BME280;65625;52.136;5.424;2023-04-07T13:04:30;101940.41;;;10.79;85.18
76694;BME280;65625;52.136;5.424;2023-04-07T13:06:57;101942.22;;;10.79;85.13
76694;BME280;65625;52.136;5.424;2023-04-07T13:09:24;101944.59;;;10.69;83.94
76694;BME280;65625;52.136;5.424;2023-04-07T13:11:51;101946.00;;;10.61;84.33
76694;BME280;65625;52.136;5.424;2023-04-07T13:14:18;101946.41;;;10.53;83.84
76694;BME280;65625;52.136;5.424;2023-04-07T13:16:44;101948.44;;;10.50;84.23
76694;BME280;65625;52.136;5.424;2023-04-07T13:19:11;101948.28;;;10.53;84.96
76694;BME280;65625;52.136;5.424;2023-04-07T13:21:38;101950.88;;;10.54;83.78